createdAt,value
2023-02-22T00:11:38.776Z,100490.28
2023-02-22T00:14:07.372Z,100490.28
2023-02-22T00:16:35.929Z,100497.91
2023-02-22T00:19:06.108Z,100502.78
2023-02-22T00:21:34.933Z,100496.88
2023-02-22T00:24:22.987Z,100492.59
2023-02-22T00:26:56.852Z,100488.19
2023-02-22T00:29:25.907Z,100493.44
2023-02-22T00:49:43.653Z,100491.16
2023-02-22T00:52:12.585Z,100491.16
2023-02-22T00:54:40.681Z,100448.25
2023-02-22T00:57:08.973Z,100476.47
2023-02-22T00:59:37.337Z,100455.00
2023-02-22T01:02:05.925Z,100477.00
2023-02-22T01:04:34.196Z,100485.94
2023-02-22T01:07:03.447Z,100487.16
2023-02-22T01:09:33.482Z,100488.53
2023-02-22T01:32:42.737Z,100481.78
2023-02-22T01:35:18.577Z,100481.78
2023-02-22T01:37:46.770Z,100485.97
2023-02-22T01:40:21.120Z,100485.41
2023-02-22T01:42:53.128Z,100488.19
2023-02-22T01:45:30.361Z,100487.87
2023-02-22T01:48:23.000Z,100483.06
2023-02-22T02:15:31.519Z,100475.84
2023-02-22T02:18:03.951Z,100475.84
2023-02-22T02:20:57.153Z,100470.94
2023-02-22T02:23:50.647Z,100473.56
2023-02-22T02:26:49.888Z,100465.41
2023-02-22T02:29:52.066Z,100468.72
2023-02-22T02:48:54.852Z,100458.31
2023-02-22T02:51:30.562Z,100458.31
2023-02-22T02:54:02.761Z,100464.75
2023-02-22T02:56:31.270Z,100452.38
2023-02-22T02:58:59.550Z,100457.19
2023-02-22T03:01:44.142Z,100460.09
2023-02-22T03:04:40.152Z,100453.87
2023-02-22T03:07:29.527Z,100464.63
2023-02-22T03:19:17.062Z,100451.69
2023-02-22T03:22:20.291Z,100454.97
2023-02-22T03:24:59.267Z,100462.44
2023-02-22T03:27:49.849Z,100459.12
2023-02-22T03:46:14.686Z,100464.56
2023-02-22T03:48:54.299Z,100464.56
2023-02-22T03:51:23.416Z,100473.19
2023-02-22T03:53:52.375Z,100474.56
2023-02-22T03:56:28.660Z,100486.56
2023-02-22T03:58:57.134Z,100486.16
2023-02-22T04:01:25.225Z,100484.22
2023-02-22T04:19:40.566Z,100494.37
2023-02-22T04:22:10.080Z,100509.00
2023-02-22T04:24:38.534Z,100496.03
2023-02-22T04:27:06.496Z,100485.28
2023-02-22T04:29:35.491Z,100485.00
2023-02-22T04:32:08.020Z,100498.53
2023-02-22T04:34:40.616Z,100496.31
2023-02-22T05:00:21.965Z,100488.91
2023-02-22T05:02:52.171Z,100488.91
2023-02-22T05:05:21.711Z,100504.00
2023-02-22T05:07:50.274Z,100505.63
2023-02-22T05:10:20.100Z,100511.91
2023-02-22T05:12:49.507Z,100506.38
2023-02-22T05:15:20.649Z,100506.19
2023-02-22T05:38:43.579Z,100501.72
2023-02-22T05:41:13.557Z,100501.72
2023-02-22T05:43:42.302Z,100517.91
2023-02-22T05:46:10.258Z,100510.75
2023-02-22T05:48:38.666Z,100525.53
2023-02-22T05:51:07.548Z,100505.53
2023-02-22T05:53:37.242Z,100530.00
2023-02-22T05:56:05.975Z,100524.09
2023-02-22T06:07:15.516Z,100529.78
2023-02-22T06:19:39.151Z,100551.31
2023-02-22T06:22:08.414Z,100551.31
2023-02-22T06:24:42.106Z,100564.56
2023-02-22T06:27:12.895Z,100565.28
2023-02-22T06:29:46.210Z,100567.47
2023-02-22T06:32:15.310Z,100570.66
2023-02-22T06:34:44.051Z,100565.53
2023-02-22T06:37:24.349Z,100563.00
2023-02-22T06:40:02.629Z,100563.75
2023-02-22T06:42:38.075Z,100562.81
2023-02-22T06:45:08.667Z,100566.03
2023-02-22T06:47:43.108Z,100551.88
2023-02-22T06:50:25.350Z,100563.91
2023-02-22T06:53:10.267Z,100562.63
2023-02-22T06:55:47.269Z,100564.38
2023-02-22T06:58:29.791Z,100546.72
2023-02-22T07:01:09.467Z,100574.72
2023-02-22T07:04:10.145Z,100578.53
2023-02-22T07:06:55.904Z,100577.03
2023-02-22T07:09:28.519Z,100581.91
2023-02-22T07:12:05.498Z,100581.72
2023-02-22T07:14:44.536Z,100582.81
2023-02-22T07:17:25.181Z,100573.00
2023-02-22T07:20:05.692Z,100576.31
2023-02-22T07:22:34.154Z,100585.41
2023-02-22T07:25:02.510Z,100586.22
2023-02-22T07:27:30.499Z,100585.38
2023-02-22T07:29:59.055Z,100592.47
2023-02-22T07:32:27.489Z,100589.00
2023-02-22T07:34:59.436Z,100589.28
2023-02-22T07:37:37.594Z,100565.13
2023-02-22T07:43:17.210Z,100572.06
2023-02-22T07:48:36.916Z,100564.53
2023-02-22T07:59:39.864Z,100569.97
2023-02-22T08:02:21.323Z,100564.62
2023-02-22T08:12:49.542Z,100562.03
2023-02-22T08:15:39.720Z,100552.44
2023-02-22T08:18:17.295Z,100555.37
2023-02-22T08:20:52.725Z,100557.25
2023-02-22T08:23:29.129Z,100553.62
2023-02-22T08:26:17.864Z,100566.31
2023-02-22T08:28:59.495Z,100530.50
2023-02-22T08:31:33.242Z,100554.59
2023-02-22T08:34:06.785Z,100559.94
2023-02-22T08:36:35.102Z,100558.81
2023-02-22T08:39:11.807Z,100557.25
2023-02-22T08:41:49.418Z,100547.50
2023-02-22T08:47:20.056Z,100554.78
2023-02-22T08:49:51.315Z,100555.50
2023-02-22T09:08:47.195Z,100547.34
2023-02-22T09:11:16.304Z,100547.56
2023-02-22T09:13:44.765Z,100542.50
2023-02-22T09:16:27.005Z,100546.59
2023-02-22T09:19:01.233Z,100541.50
2023-02-22T09:21:34.789Z,100534.44
2023-02-22T09:24:10.536Z,100548.03
2023-02-22T09:26:45.340Z,100537.78
2023-02-22T09:29:26.605Z,100541.72
2023-02-22T09:32:08.656Z,100541.94
2023-02-22T09:34:49.708Z,100537.78
2023-02-22T09:37:18.761Z,100545.22
2023-02-22T09:39:48.932Z,100540.75
2023-02-22T09:42:42.037Z,100533.75
2023-02-22T09:56:36.109Z,100539.97
2023-02-22T09:59:08.181Z,100509.28
2023-02-22T10:01:45.137Z,100540.84
2023-02-22T10:04:36.993Z,100531.63
2023-02-22T10:07:26.237Z,100540.00
2023-02-22T10:09:57.198Z,100533.50
2023-02-22T10:12:30.158Z,100526.72
2023-02-22T10:15:27.897Z,100533.97
2023-02-22T10:27:38.337Z,100526.88
2023-02-22T10:30:40.050Z,100526.16
2023-02-22T10:33:19.794Z,100520.03
2023-02-22T10:35:50.310Z,100518.41
2023-02-22T10:38:40.134Z,100525.06
2023-02-22T10:41:11.804Z,100524.50
2023-02-22T10:43:44.390Z,100518.59
2023-02-22T10:46:17.743Z,100519.63
2023-02-22T10:48:52.286Z,100517.16
2023-02-22T10:51:40.219Z,100509.97
2023-02-22T10:54:27.184Z,100508.97
2023-02-22T10:57:01.865Z,100516.31
2023-02-22T10:59:37.162Z,100494.63
2023-02-22T11:02:30.156Z,100504.06
2023-02-22T11:05:01.572Z,100498.50
2023-02-22T11:07:36.880Z,100496.88
2023-02-22T11:10:09.741Z,100489.94
2023-02-22T11:12:46.639Z,100494.44
2023-02-22T11:15:17.360Z,100471.66
2023-02-22T11:17:53.815Z,100487.69
2023-02-22T11:20:42.221Z,100488.50
2023-02-22T11:23:12.847Z,100483.16
2023-02-22T11:25:43.041Z,100473.34
2023-02-22T11:28:31.434Z,100483.97
2023-02-22T11:31:18.359Z,100485.63
2023-02-22T11:36:44.487Z,100472.50
2023-02-22T11:42:26.913Z,100482.91
2023-02-22T11:45:25.323Z,100473.22
2023-02-22T11:50:58.367Z,100470.44
2023-02-22T11:53:56.888Z,100472.56
2023-02-22T11:59:26.575Z,100456.28
2023-02-22T12:02:00.696Z,100462.03
2023-02-22T12:14:07.726Z,100444.91
2023-02-22T12:17:05.497Z,100444.91
2023-02-22T12:20:01.578Z,100441.03
2023-02-22T12:22:36.029Z,100439.16
2023-02-22T12:25:16.549Z,100440.03
2023-02-22T12:27:52.139Z,100440.47
2023-02-22T12:30:46.948Z,100428.19
2023-02-22T12:34:06.824Z,100424.09
2023-02-22T12:36:54.471Z,100432.28
2023-02-22T12:39:54.429Z,100422.47
2023-02-22T12:42:52.638Z,100426.16
2023-02-22T13:08:28.360Z,100405.59
2023-02-22T13:11:01.991Z,100405.59
2023-02-22T13:13:54.710Z,100408.69
2023-02-22T13:17:02.108Z,100402.34
2023-02-22T13:19:48.343Z,100409.31
2023-02-22T13:22:28.038Z,100408.69
2023-02-22T13:25:09.279Z,100406.44
2023-02-22T13:28:00.650Z,100411.13
2023-02-22T13:30:41.313Z,100409.28
2023-02-22T13:33:25.110Z,100414.44
2023-02-22T13:38:58.214Z,100404.44
2023-02-22T13:47:59.205Z,100394.59
2023-02-22T13:50:55.366Z,100394.59
2023-02-22T13:53:28.300Z,100391.56
2023-02-22T13:56:00.203Z,100396.06
2023-02-22T13:58:28.343Z,100395.47
2023-02-22T14:00:59.296Z,100392.59
2023-02-22T14:03:36.470Z,100395.47
2023-02-22T14:06:05.943Z,100389.31
2023-02-22T14:08:34.382Z,100391.34
2023-02-22T14:11:32.629Z,100396.47
2023-02-22T14:14:01.271Z,100393.00
2023-02-22T14:16:32.012Z,100390.13
2023-02-22T14:19:13.666Z,100386.88
2023-02-22T14:22:02.924Z,100385.44
2023-02-22T14:24:48.866Z,100395.25
2023-02-22T14:37:59.264Z,100372.03
2023-02-22T14:40:31.519Z,100372.03
2023-02-22T14:43:15.624Z,100380.91
2023-02-22T14:45:53.986Z,100380.31
2023-02-22T14:48:39.601Z,100376.63
2023-02-22T14:51:22.606Z,100376.41
2023-02-22T14:53:57.635Z,100383.16
2023-02-22T14:56:36.347Z,100364.72
2023-02-22T15:13:10.821Z,100366.37
2023-02-22T15:15:48.240Z,100366.37
2023-02-22T15:18:22.293Z,100361.81
2023-02-22T15:20:56.469Z,100354.75
2023-02-22T15:23:49.967Z,100354.75
2023-02-22T15:26:37.400Z,100357.19
2023-02-22T15:29:15.495Z,100355.56
2023-02-22T15:47:29.931Z,100349.06
2023-02-22T15:50:28.360Z,100349.06
2023-02-22T15:53:25.791Z,100355.94
2023-02-22T15:56:01.244Z,100365.22
2023-02-22T15:58:30.695Z,100358.81
2023-02-22T16:01:03.418Z,100358.09
2023-02-22T16:28:42.215Z,100343.88
2023-02-22T16:31:13.667Z,100343.88
2023-02-22T16:33:43.519Z,100354.94
2023-02-22T16:36:42.080Z,100352.00
2023-02-22T16:39:40.772Z,100360.16
2023-02-22T16:46:10.661Z,100313.28
2023-02-22T16:52:40.152Z,100369.88
2023-02-22T16:58:23.311Z,100374.53
2023-02-22T17:01:09.035Z,100372.25
2023-02-22T17:12:35.113Z,100371.97
2023-02-22T17:15:04.550Z,100371.97
2023-02-22T17:17:35.385Z,100377.75
2023-02-22T17:20:11.476Z,100378.84
2023-02-22T17:22:40.023Z,100382.03
2023-02-22T17:25:31.140Z,100370.97
2023-02-22T17:27:59.234Z,100380.03
2023-02-22T17:30:32.378Z,100382.13
2023-02-22T17:53:43.742Z,100376.69
2023-02-22T17:56:18.913Z,100383.03
2023-02-22T17:58:49.910Z,100379.28
2023-02-22T18:01:25.136Z,100382.66
2023-02-22T18:03:55.709Z,100379.56
2023-02-22T18:06:27.349Z,100386.06
2023-02-22T18:08:58.248Z,100383.09
2023-02-22T18:11:32.637Z,100380.00
2023-02-22T18:14:02.037Z,100377.06
2023-02-22T18:34:34.888Z,100354.97
2023-02-22T18:37:05.694Z,100362.75
2023-02-22T18:39:40.786Z,100357.12
2023-02-22T18:42:11.564Z,100355.72
2023-02-22T18:44:40.181Z,100354.94
2023-02-22T18:47:08.562Z,100361.06
2023-02-22T18:49:36.837Z,100358.75
2023-02-22T18:52:11.625Z,100353.53
2023-02-22T18:54:43.182Z,100365.19
2023-02-22T19:17:41.134Z,100364.88
2023-02-22T19:20:12.061Z,100369.84
2023-02-22T19:22:40.668Z,100365.94
2023-02-22T19:25:08.883Z,100363.13
2023-02-22T19:27:38.073Z,100334.84
2023-02-22T19:30:08.470Z,100349.97
2023-02-22T19:32:38.170Z,100378.94
2023-02-22T19:35:08.027Z,100374.34
2023-02-22T19:37:36.983Z,100371.41
2023-02-22T19:57:33.288Z,100376.28
2023-02-22T20:00:12.895Z,100376.28
2023-02-22T20:02:43.537Z,100356.31
2023-02-22T20:05:16.675Z,100386.97
2023-02-22T20:07:52.557Z,100384.34
2023-02-22T20:10:23.868Z,100378.41
2023-02-22T20:12:55.547Z,100378.88
2023-02-22T20:15:28.171Z,100385.50
2023-02-22T20:18:00.434Z,100378.41
2023-02-22T20:20:34.560Z,100380.84
2023-02-22T20:41:15.845Z,100376.09
2023-02-22T20:43:49.135Z,100381.03
2023-02-22T20:46:17.899Z,100372.31
2023-02-22T20:48:46.814Z,100386.13
2023-02-22T20:51:16.182Z,100375.44
2023-02-22T20:53:45.153Z,100374.78
2023-02-22T20:56:18.931Z,100382.84
2023-02-22T20:58:47.833Z,100384.97
2023-02-22T21:19:03.503Z,100391.56
2023-02-22T21:21:33.377Z,100391.56
2023-02-22T21:24:01.905Z,100397.44
2023-02-22T21:26:33.566Z,100392.97
2023-02-22T21:29:05.027Z,100395.09
2023-02-22T21:31:36.372Z,100390.16
2023-02-22T21:34:05.041Z,100385.53
2023-02-22T21:36:33.536Z,100392.75
2023-02-22T21:59:58.933Z,100379.03
2023-02-22T22:02:29.354Z,100379.03
2023-02-22T22:04:58.426Z,100386.66
2023-02-22T22:07:26.212Z,100390.00
2023-02-22T22:09:57.061Z,100388.28
2023-02-22T22:12:37.475Z,100387.88
2023-02-22T22:15:07.271Z,100387.44
2023-02-22T22:36:03.118Z,100386.75
2023-02-22T22:38:33.442Z,100386.84
2023-02-22T22:41:01.897Z,100395.22
2023-02-22T22:43:35.461Z,100385.13
2023-02-22T22:46:08.722Z,100396.78
2023-02-22T22:48:41.465Z,100401.62
2023-02-22T22:51:17.111Z,100395.28
2023-02-22T22:53:57.356Z,100411.38
2023-02-22T22:56:29.195Z,100405.81
2023-02-22T22:58:59.615Z,100410.34
2023-02-22T23:01:34.373Z,100401.50
2023-02-22T23:24:47.216Z,100400.78
2023-02-22T23:30:15.650Z,100401.12
2023-02-22T23:33:06.907Z,100400.75
2023-02-22T23:35:49.113Z,100405.97
2023-02-22T23:38:34.619Z,100397.41
2023-02-22T23:41:17.905Z,100379.63
2023-02-22T23:44:22.923Z,100399.66
2023-02-22T23:46:58.840Z,100394.00
2023-02-22T23:49:38.291Z,100387.72
2023-02-22T23:52:10.515Z,100377.47
2023-02-22T23:55:02.205Z,100395.84
2023-02-22T23:57:50.360Z,100346.03
